Terminal Aerodrome Forecast
Issued by NWS

Home | Current Version | Previous Version | Text Only | Print | Product List | Glossary On
Versions: 1 2 3 4 5 6 7 8 9 10 11 12 13 14 15 16 17 18 19 20 21 22 23 24 25 26 27 28 29 30 31 32 33 34
000
FTUS43 KDTX 060919 AAA
TAFYIP
TAF AMD
KYIP 060919Z 0609/0706 04005KT 2SM BR OVC003
     FM061300 06005KT 4SM BR OVC006
     FM061500 09005KT P6SM OVC015
     FM061900 15007KT P6SM SCT035=

USA.gov is the U.S. government's official web portal to all federal, state and local government web resources and services.